createdAt,value
2023-07-07T00:08:20.113Z,13.04
2023-07-07T00:23:22.830Z,12.85
2023-07-07T00:38:26.882Z,12.71
2023-07-07T00:53:30.875Z,12.58
2023-07-07T01:08:35.421Z,12.40
2023-07-07T01:24:08.273Z,12.22
2023-07-07T01:39:12.105Z,12.12
2023-07-07T01:54:16.696Z,12.01
2023-07-07T02:09:21.676Z,11.92
2023-07-07T02:24:24.509Z,11.85
2023-07-07T02:39:27.734Z,11.83
2023-07-07T02:54:30.539Z,11.65
2023-07-07T03:09:33.261Z,11.53
2023-07-07T03:24:36.115Z,11.57
2023-07-07T03:39:38.894Z,12.11
2023-07-07T03:54:41.777Z,13.86
2023-07-07T04:09:44.494Z,16.55
2023-07-07T04:24:47.197Z,19.21
2023-07-07T04:39:50.227Z,21.05
2023-07-07T04:54:53.793Z,23.01
2023-07-07T05:09:57.109Z,24.82
2023-07-07T05:25:00.209Z,26.48
2023-07-07T05:40:03.485Z,27.41
2023-07-07T05:55:07.136Z,28.98
2023-07-07T06:10:13.518Z,30.42
2023-07-07T06:25:16.935Z,32.08
2023-07-07T06:40:19.801Z,32.48
2023-07-07T06:55:23.364Z,33.78
2023-07-07T07:10:26.196Z,34.48
2023-07-07T07:25:29.588Z,33.87
2023-07-07T07:40:33.052Z,34.17
2023-07-07T07:55:35.963Z,32.35
2023-07-07T08:10:41.103Z,32.80
2023-07-07T08:25:44.275Z,32.81
2023-07-07T08:40:51.845Z,33.20
2023-07-07T08:55:58.771Z,33.57
2023-07-07T09:11:12.858Z,34.33
2023-07-07T09:26:34.261Z,34.35
2023-07-07T09:42:08.203Z,35.67
2023-07-07T09:57:26.455Z,35.11
2023-07-07T10:12:35.195Z,31.47
2023-07-07T10:27:49.209Z,32.53
2023-07-07T10:42:54.740Z,33.08
2023-07-07T10:58:07.312Z,30.70
2023-07-07T11:13:34.261Z,30.31
2023-07-07T11:29:06.573Z,31.19
2023-07-07T11:44:24.878Z,30.80
2023-07-07T11:59:47.522Z,28.74
2023-07-07T12:14:55.896Z,29.00
2023-07-07T12:30:00.329Z,29.49
2023-07-07T12:45:40.546Z,29.69
2023-07-07T13:00:47.877Z,29.70
2023-07-07T13:15:51.740Z,29.20
2023-07-07T13:30:56.913Z,29.48
2023-07-07T13:46:13.846Z,29.34
2023-07-07T14:01:26.760Z,28.86
2023-07-07T14:16:39.317Z,28.75
2023-07-07T14:31:42.313Z,28.39
2023-07-07T14:46:45.145Z,28.40
2023-07-07T15:01:56.625Z,27.82
2023-07-07T15:16:59.831Z,27.56
2023-07-07T15:32:10.542Z,27.31
2023-07-07T15:47:22.261Z,27.03
2023-07-07T16:02:28.194Z,26.91
2023-07-07T16:17:31.358Z,26.73
2023-07-07T16:32:34.860Z,26.64
2023-07-07T16:47:37.648Z,26.61
2023-07-07T17:02:40.476Z,26.50
2023-07-07T17:17:43.587Z,26.36
2023-07-07T17:32:47.723Z,26.28
2023-07-07T17:47:50.733Z,26.18
2023-07-07T18:02:53.617Z,26.12
2023-07-07T18:18:00.242Z,25.74
2023-07-07T18:33:14.450Z,25.03
2023-07-07T18:48:17.151Z,24.13
2023-07-07T19:03:19.953Z,23.11
2023-07-07T19:18:37.009Z,22.10
2023-07-07T19:33:42.505Z,21.20
2023-07-07T19:48:46.066Z,20.33
2023-07-07T20:03:49.503Z,19.48
2023-07-07T20:18:54.440Z,18.72
2023-07-07T20:33:57.650Z,18.10
2023-07-07T20:49:02.760Z,17.59
2023-07-07T21:04:05.660Z,17.02
2023-07-07T21:19:12.862Z,16.53
2023-07-07T21:34:15.982Z,16.17
2023-07-07T21:49:19.192Z,15.89
2023-07-07T22:04:25.122Z,15.64
2023-07-07T22:19:28.359Z,15.32
2023-07-07T22:34:31.147Z,15.01
2023-07-07T22:49:33.853Z,14.81
2023-07-07T23:04:36.620Z,14.61
2023-07-07T23:19:39.361Z,14.53
2023-07-07T23:34:42.172Z,14.36
2023-07-07T23:49:44.887Z,14.15
